Avalon School, Santa Catalina Island Weather observations

Data are for 10 minute period ending at time listed.
 Day   Time   Solar   Ave.   Ave.  Ave.  Vector    Max.   Stn.    Total
  of    of     Rad.   Air    Rel.  Wind   Wind     Wind   Baro.  Precip.
Year   Day            Temp.  Hum.  Speed  Dir.     Gust   Pres.         
2016   (PST)   W/m2    F      %     mph   deg.      mph    mb.     in.  
------------------------------------------------------------------------
 206   10:10  661.0    78   69.1     4     91.0     9.6    999.0   0.00  
 206   10:20  673.0    80   66.6     3    126.2     9.0    999.0   0.00  
 206   10:30  683.0    80   65.9     4     74.3     7.8    999.0   0.00  
 206   10:40  696.0    79   67.4     6     78.7    13.1    999.0   0.11  
 206   10:50  705.0    80   65.4     4     55.9    12.5    999.0   0.13  
 206   11:00  713.0    80   65.3     4    115.4    10.2    999.0   0.17  
 206   11:10  724.0    80   66.5     6    106.6    11.9    999.0   1.01  
 206   11:20  733.0    79   66.5     6    111.6    11.3    999.0   0.29  
 206   11:30  742.0    79   67.4     6    101.9    12.5    999.0   0.12  
 206   11:40  748.0    78   69.7     8     93.1    13.7    999.0   0.49  
 206   11:50  754.0    78   70.5     9     94.3    15.5    999.0   1.02  
 206   12:00  757.0    78   69.6     7     94.3    11.3    999.0   0.39  
 206   12:10  758.0    79   68.6     7    106.9    10.8    999.0   0.01  
 206   12:20  754.0    80   66.5     7    105.7    11.9    999.0   0.00  
 206   12:30  753.0    81   62.4     7    105.3    10.8    999.0   0.00  
 206   12:40  746.0    82   58.9     5    338.3     9.6    999.0   0.35  
 206   12:50  736.0    84   55.0     4    280.9     9.6    999.0   0.01  
 206   13:00  729.0    84   53.7     4    331.0     9.6    999.0   0.11  
 206   13:10  719.0    85   50.7     4      0.7     9.0    999.0   1.68  
 206   13:20  710.0    86   46.8     4    330.3     9.6    999.0   1.05  
 206   13:30  697.0    85   47.5     5    298.1    12.5    999.0   1.85  
 206   13:40  688.0    83   49.0     6    254.4    12.5    999.0   1.99  
 206   13:50  677.0    85   44.8     4    160.8     9.6    999.0   1.71  
 206   14:00  661.0    84   53.6     4    342.6     9.0    999.0   1.29  
 206   14:10  647.0    82   61.2     4    267.7     8.4    999.0   1.84  
 206   14:20  631.0    82   59.7     3     38.7     9.0    999.0   1.97  
 206   14:30  611.0    82   60.1     4    293.1     7.8    999.0   1.82  
 206   14:40  594.0    80   63.2     4    116.9     6.6    999.0   1.34  
 206   14:50  577.0    81   61.6     5    110.9     9.6    999.0   0.91  
 206   15:00  555.0    80   63.8     6    106.2     8.4    999.0   1.09  
 206   15:10  535.0    79   65.6     5     99.8     9.6    999.0   0.95  
 206   15:20  514.0    77   71.1     6    103.2    10.8    999.0   0.79  
 206   15:30  491.0    77   71.6     5    110.1    10.2    999.0   1.18  
 206   15:40  467.0    76   74.3     6    121.8    10.8    999.0   1.24  
 206   15:50  444.0    75   76.6     6    130.5    10.2    999.0   1.89  
 206   16:00  417.0    74   78.4     5    113.1     9.0    999.0   1.68  
 206   16:10  389.0    74   78.3     4    105.7     8.4    999.0   1.46  
 206   16:20  362.0    75   77.1     5    117.2     7.2    999.0   1.09  
 206   16:30  336.0    75   77.6     5    106.6     8.4    999.0   1.00  
 206   16:40  309.0    75   76.8     4    114.9     7.8    999.0   1.10  
 206   16:50  283.0    75   77.6     4    123.6     6.6    999.0   1.02  
 206   17:00  256.0    75   77.5     4    114.4     7.2    999.0   1.52  
 206   17:10  228.0    75   76.7     4    100.6     6.6    999.0   0.88  
 206   17:20  201.0    75   76.5     4    100.8     6.0    999.0   1.25  
 206   17:30  176.0    75   76.1     3    125.2     6.0    999.0   1.37  
 206   17:40  153.0    74   77.8     4    134.9     5.4    999.0   1.24  
 206   17:50  105.0    74   78.8     4    134.0     6.0    999.0   1.07  
 206   18:00   27.0    73   80.5     5    132.7     7.2    999.0   1.28  
 206   18:10   22.0    73   80.4     3    118.0     6.0    999.0   0.80  
 206   18:20   19.0    73   81.2     3    124.2     6.0    999.0   1.53  
 206   18:30   15.0    72   83.5     0    129.4     3.0    999.0   1.83  
 206   18:40   12.0    72   83.8     1    145.6     3.6    999.0   0.70  
 206   18:50    8.0    72   83.7     0    195.0     2.4    999.0   1.31  
 206   19:00    4.0    71   84.1     0    216.5     1.2    999.0   1.46  
 206   19:10    2.0    71   84.7     0      0.0     0.0    999.0   0.36  
 206   19:20    0.0    70   85.0     1    250.4     3.0    999.0   0.00  
 206   19:30    0.0    71   85.2     0      0.0     0.0    999.0   0.00  
 206   19:40    0.0    70   85.5     0    110.2     2.4    999.0   0.00  
 206   19:50    0.0    70   86.1     0    250.0     1.8    999.0   0.08  
 206   20:00    0.0    70   86.8     0    260.6     1.2    999.0   0.04  
 206   20:10    0.0    70   87.4     0      0.0     0.0    999.0   0.00  
 206   20:20    0.0    69   87.6     0      0.0     0.0    999.0   0.03  
 206   20:30    0.0    69   88.0     0      0.0     0.0    999.0   1.03  
 206   20:40    0.0    69   88.5     0    252.9     1.2    999.0   2.00  
 206   20:50    0.0    68   88.6     0      0.0     0.0    999.0   2.00  
 206   21:00    0.0    68   88.8     0    255.6     1.8    999.0   1.85  
 206   21:10    0.0    68   88.9     0    248.9     1.8    999.0   1.78  
 206   21:20    0.0    68   89.1     0      0.0     0.0    999.0   2.00  
 206   21:30    0.0    68   89.3     0    287.7     1.2    999.0   1.99  
 206   21:40    0.0    68   89.5     0    276.2     2.4    999.0   1.19  
 206   21:50    0.0    68   89.8     0      0.0     0.0    999.0   0.00  
 206   22:00    0.0    67   90.0     0      0.0     0.0    999.0   0.00  
 206   22:10    0.0    68   90.3     0      0.0     0.0    999.0   0.00  
 206   22:20    0.0    67   90.4     0      0.0     0.0    999.0   0.63  
 206   22:30    0.0    67   90.5     0      0.0     0.0    999.0   0.00  
 206   22:40    0.0    67   90.8     0      0.0     0.0    999.0   0.00  
 206   22:50    0.0    67   90.9     0      0.0     0.0    999.0   0.00  
 206   23:00    0.0    67   91.2     0      0.0     0.0    999.0   0.00  
 206   23:10    0.0    67   91.1     0      0.0     0.0    999.0   0.00  
 206   23:20    0.0    66   91.1     0      0.0     0.0    999.0   0.00  
 206   23:30    0.0    66   91.4     0      0.0     0.0    999.0   0.00  
 206   23:40    0.0    67   91.5     0      0.0     0.0    999.0   0.00  
 206   23:50    0.0    67   91.6     0      0.0     0.0    999.0   0.00  
 207    0:00    0.0    67   91.9     0      0.0     0.0    999.0   0.00  
 207    0:10    0.0    68   92.1     0      0.0     0.0    999.0   0.00  
 207    0:20    0.0    68   92.1     0      0.0     0.0    999.0   0.00  
 207    0:30    0.0    68   92.0     0      0.0     0.0    999.0   0.00  
 207    0:40    0.0    68   92.0     0      0.0     0.0    999.0   0.00  
 207    0:50    0.0    68   91.9     0      0.0     0.0    999.0   0.00  
 207    1:00    0.0    67   91.7     0      0.0     0.0    999.0   0.00  
 207    1:10    0.0    67   91.8     0      0.0     0.0    999.0   0.00  
 207    1:20    0.0    67   91.9     0      0.0     0.0    999.0   0.00  
 207    1:30    0.0    67   92.1     0      0.0     0.0    999.0   0.00  
 207    1:40    0.0    67   92.3     0      0.0     0.0    999.0   0.00  
 207    1:50    0.0    67   92.4     0      0.0     0.0    999.0   0.00  
 207    2:00    0.0    66   92.5     0      0.0     0.0    999.0   0.00  
 207    2:10    0.0    66   92.6     0      0.0     0.0    999.0   0.02  
 207    2:20    0.0    67   92.8     0      0.0     0.0    999.0   0.00  
 207    2:30    0.0    67   92.7     0      0.0     0.0    999.0   0.00  
 207    2:40    0.0    67   92.7     0      0.0     0.0    999.0   0.00  
 207    2:50    0.0    68   92.7     0      0.0     0.0    999.0   0.00  
 207    3:00    0.0    68   92.7     0      0.0     0.0    999.0   0.00  
 207    3:10    0.0    68   92.6     0      0.0     0.0    999.0   0.00  
 207    3:20    0.0    67   92.6     0      0.0     0.0    999.0   0.00  
 207    3:30    0.0    67   92.5     0      0.0     0.0    999.0   0.00  
 207    3:40    0.0    66   92.5     0      0.0     0.0    999.0   0.00  
 207    3:50    0.0    66   92.7     0      0.0     0.0    999.0   0.00  
 207    4:00    0.0    66   92.8     0      0.0     0.0    999.0   0.00  
 207    4:10    0.0    66   93.0     0      0.0     0.0    999.0   0.00  
 207    4:20    0.0    66   93.1     0      0.0     0.0    999.0   0.00  
 207    4:30    0.0    66   93.2     0      0.0     0.0    999.0   0.00  
 207    4:40    0.0    66   93.2     0      0.0     0.0    999.0   0.00  
 207    4:50    0.0    65   93.3     0      0.0     0.0    999.0   0.00  
 207    5:00    1.0    65   93.4     0      0.0     0.0    999.0   0.00  
 207    5:10    3.0    65   93.5     0      0.0     0.0    999.0   0.00  
 207    5:20    8.0    65   93.6     0      0.0     0.0    999.0   0.00  
 207    5:30   11.0    65   93.6     0      0.0     0.0    999.0   0.00  
 207    5:40   14.0    65   93.6     0      0.0     0.0    999.0   0.00  
 207    5:50   22.0    66   93.7     0      0.0     0.0    999.0   0.00  
 207    6:00   33.0    66   93.6     0      0.0     0.0    999.0   0.00  
 207    6:10   80.0    67   93.5     0      0.0     0.0    999.0   0.00  
 207    6:20  136.0    68   91.9     0      0.0     0.0    999.0   0.00  
 207    6:30  157.0    70   89.2     1     73.1     4.2    999.0   0.00  
 207    6:40  150.0    71   86.7     2     78.0     3.6    999.0   0.00  
 207    6:50  208.0    72   84.4     2     91.5     4.2    999.0   0.00  
 207    7:00  234.0    73   82.7     2     93.0     4.2    999.0   0.22  
 207    7:10  195.0    74   81.4     2     84.8     6.6    999.0   0.00  
 207    7:20  274.0    73   82.6     3     97.6     6.0    999.0   0.00  
 207    7:30  307.0    74   82.6     3     93.4     4.8    999.0   0.00  
 207    7:40  313.0    74   82.5     2    313.2     4.2    999.0   0.00  
 207    7:50  327.0    74   82.8     3      4.3     5.4    999.0   0.00  
 207    8:00  303.0    74   81.6     3    359.4     6.6    999.0   0.81  
 207    8:10  390.0    73   83.1     5    276.2     8.4    999.0   0.10  
 207    8:20  442.0    73   82.8     3    305.6     7.2    999.0   0.03  
 207    8:30  469.0    74   81.1     4    308.6     7.8    999.0   0.00  
 207    8:40  462.0    74   81.8     4    294.3     7.2    999.0   0.00  
 207    8:50  519.0    75   79.6     3    292.3     7.2    999.0   0.00  
 207    9:00  543.0    74   80.1     3     18.3     7.2    999.0   0.35  
 207    9:10  567.0    74   80.4     4    109.3     7.2    999.0   0.00  
 207    9:20  591.0    74   81.3     4    305.9     9.6    999.0   0.00  
 207    9:30  604.0    74   81.1     4    200.0     7.2    999.0   0.00  
 207    9:40  558.0    74   81.2     4    301.9    11.3    999.0   0.00  
 207    9:50  589.0    73   81.7     6    281.6     8.4    999.0   0.00  
 207   10:00  668.0    74   81.5     4    296.0     7.8    999.0   0.00  

Return to Avalon School graphs page.


Western Regional Climate Center,wrcc@dri.edu